sensor_id;sensor_type;location;lat;lon;timestamp;P1;durP1;ratioP1;P2;durP2;ratioP2
52380;SDS011;38310;52.796;6.942;2023-12-20T00:00:58;13.68;;;4.13;;
52380;SDS011;38310;52.796;6.942;2023-12-20T00:03:24;10.32;;;4.18;;
52380;SDS011;38310;52.796;6.942;2023-12-20T00:05:49;14.00;;;4.15;;
52380;SDS011;38310;52.796;6.942;2023-12-20T00:08:15;12.65;;;3.88;;
52380;SDS011;38310;52.796;6.942;2023-12-20T00:10:41;13.35;;;3.58;;
52380;SDS011;38310;52.796;6.942;2023-12-20T00:13:08;12.70;;;4.03;;
52380;SDS011;38310;52.796;6.942;2023-12-20T00:15:34;12.85;;;4.05;;
52380;SDS011;38310;52.796;6.942;2023-12-20T00:18:01;13.60;;;4.00;;
52380;SDS011;38310;52.796;6.942;2023-12-20T00:20:27;10.35;;;3.97;;
52380;SDS011;38310;52.796;6.942;2023-12-20T00:22:55;13.45;;;4.30;;
52380;SDS011;38310;52.796;6.942;2023-12-20T00:25:25;11.90;;;4.18;;
52380;SDS011;38310;52.796;6.942;2023-12-20T00:27:51;11.75;;;4.45;;
52380;SDS011;38310;52.796;6.942;2023-12-20T00:30:17;12.45;;;3.90;;
52380;SDS011;38310;52.796;6.942;2023-12-20T00:32:43;9.45;;;3.42;;
52380;SDS011;38310;52.796;6.942;2023-12-20T00:35:12;12.70;;;3.70;;
52380;SDS011;38310;52.796;6.942;2023-12-20T00:37:41;17.65;;;4.32;;
52380;SDS011;38310;52.796;6.942;2023-12-20T00:40:08;13.02;;;3.63;;
52380;SDS011;38310;52.796;6.942;2023-12-20T00:42:34;12.48;;;4.00;;
52380;SDS011;38310;52.796;6.942;2023-12-20T00:45:01;16.77;;;4.40;;
52380;SDS011;38310;52.796;6.942;2023-12-20T00:47:28;11.52;;;3.80;;
52380;SDS011;38310;52.796;6.942;2023-12-20T00:49:53;19.58;;;4.78;;
52380;SDS011;38310;52.796;6.942;2023-12-20T00:52:19;12.38;;;4.38;;
52380;SDS011;38310;52.796;6.942;2023-12-20T00:54:47;14.18;;;4.38;;
52380;SDS011;38310;52.796;6.942;2023-12-20T00:57:12;12.85;;;3.88;;
52380;SDS011;38310;52.796;6.942;2023-12-20T00:59:38;11.43;;;3.50;;
52380;SDS011;38310;52.796;6.942;2023-12-20T01:02:04;13.75;;;3.88;;
52380;SDS011;38310;52.796;6.942;2023-12-20T01:04:29;13.77;;;4.43;;
52380;SDS011;38310;52.796;6.942;2023-12-20T01:06:56;10.10;;;4.15;;
52380;SDS011;38310;52.796;6.942;2023-12-20T01:09:22;14.93;;;4.57;;
52380;SDS011;38310;52.796;6.942;2023-12-20T01:11:54;14.43;;;4.60;;
52380;SDS011;38310;52.796;6.942;2023-12-20T01:14:20;10.68;;;4.30;;
52380;SDS011;38310;52.796;6.942;2023-12-20T01:16:46;12.25;;;4.03;;
52380;SDS011;38310;52.796;6.942;2023-12-20T01:19:12;12.68;;;4.68;;
52380;SDS011;38310;52.796;6.942;2023-12-20T01:21:39;18.45;;;3.95;;
52380;SDS011;38310;52.796;6.942;2023-12-20T01:24:05;17.17;;;4.97;;
52380;SDS011;38310;52.796;6.942;2023-12-20T01:26:30;19.08;;;5.03;;
52380;SDS011;38310;52.796;6.942;2023-12-20T01:28:56;14.43;;;4.80;;
52380;SDS011;38310;52.796;6.942;2023-12-20T01:31:22;15.43;;;4.45;;
52380;SDS011;38310;52.796;6.942;2023-12-20T01:33:48;18.80;;;4.80;;
52380;SDS011;38310;52.796;6.942;2023-12-20T01:36:14;13.52;;;4.05;;
52380;SDS011;38310;52.796;6.942;2023-12-20T01:38:40;14.38;;;4.47;;
52380;SDS011;38310;52.796;6.942;2023-12-20T01:41:06;13.57;;;4.47;;
52380;SDS011;38310;52.796;6.942;2023-12-20T01:43:33;14.35;;;4.40;;
52380;SDS011;38310;52.796;6.942;2023-12-20T01:45:59;14.60;;;4.57;;
52380;SDS011;38310;52.796;6.942;2023-12-20T01:48:25;17.45;;;4.75;;
52380;SDS011;38310;52.796;6.942;2023-12-20T01:50:52;16.92;;;4.40;;
52380;SDS011;38310;52.796;6.942;2023-12-20T01:53:19;15.52;;;5.15;;
52380;SDS011;38310;52.796;6.942;2023-12-20T01:55:49;17.50;;;5.15;;
52380;SDS011;38310;52.796;6.942;2023-12-20T01:58:17;10.40;;;3.95;;
52380;SDS011;38310;52.796;6.942;2023-12-20T02:00:44;16.02;;;4.82;;
52380;SDS011;38310;52.796;6.942;2023-12-20T02:03:10;17.45;;;5.18;;
52380;SDS011;38310;52.796;6.942;2023-12-20T02:05:40;16.35;;;4.82;;
52380;SDS011;38310;52.796;6.942;2023-12-20T02:08:06;14.82;;;4.45;;
52380;SDS011;38310;52.796;6.942;2023-12-20T02:10:32;14.88;;;4.65;;
52380;SDS011;38310;52.796;6.942;2023-12-20T02:12:58;16.38;;;5.00;;
52380;SDS011;38310;52.796;6.942;2023-12-20T02:15:24;17.05;;;4.40;;
52380;SDS011;38310;52.796;6.942;2023-12-20T02:17:50;13.90;;;5.05;;
52380;SDS011;38310;52.796;6.942;2023-12-20T02:20:15;20.33;;;5.15;;
52380;SDS011;38310;52.796;6.942;2023-12-20T02:22:41;20.83;;;5.38;;
52380;SDS011;38310;52.796;6.942;2023-12-20T02:25:07;17.05;;;5.68;;
52380;SDS011;38310;52.796;6.942;2023-12-20T02:27:33;16.67;;;4.78;;
52380;SDS011;38310;52.796;6.942;2023-12-20T02:30:00;12.88;;;4.82;;
52380;SDS011;38310;52.796;6.942;2023-12-20T02:32:26;14.50;;;4.68;;
52380;SDS011;38310;52.796;6.942;2023-12-20T02:34:52;17.33;;;5.45;;
52380;SDS011;38310;52.796;6.942;2023-12-20T02:37:18;16.45;;;5.10;;
52380;SDS011;38310;52.796;6.942;2023-12-20T02:39:44;17.08;;;4.72;;
52380;SDS011;38310;52.796;6.942;2023-12-20T02:42:10;13.30;;;4.65;;
52380;SDS011;38310;52.796;6.942;2023-12-20T02:44:36;16.42;;;4.90;;
52380;SDS011;38310;52.796;6.942;2023-12-20T02:47:02;17.48;;;5.55;;
52380;SDS011;38310;52.796;6.942;2023-12-20T02:49:28;15.07;;;5.15;;
52380;SDS011;38310;52.796;6.942;2023-12-20T02:51:54;18.48;;;5.43;;
52380;SDS011;38310;52.796;6.942;2023-12-20T02:54:20;21.00;;;6.18;;
52380;SDS011;38310;52.796;6.942;2023-12-20T02:56:46;17.83;;;5.50;;
52380;SDS011;38310;52.796;6.942;2023-12-20T02:59:13;16.08;;;5.43;;
52380;SDS011;38310;52.796;6.942;2023-12-20T03:01:43;18.80;;;5.40;;
52380;SDS011;38310;52.796;6.942;2023-12-20T03:04:10;21.80;;;5.85;;
52380;SDS011;38310;52.796;6.942;2023-12-20T03:06:35;19.98;;;4.97;;
52380;SDS011;38310;52.796;6.942;2023-12-20T03:09:01;15.02;;;5.00;;
52380;SDS011;38310;52.796;6.942;2023-12-20T03:11:27;18.58;;;6.10;;
52380;SDS011;38310;52.796;6.942;2023-12-20T03:13:53;15.95;;;5.75;;
52380;SDS011;38310;52.796;6.942;2023-12-20T03:16:19;17.15;;;5.13;;
52380;SDS011;38310;52.796;6.942;2023-12-20T03:18:45;13.98;;;5.18;;
52380;SDS011;38310;52.796;6.942;2023-12-20T03:21:11;14.35;;;5.30;;
52380;SDS011;38310;52.796;6.942;2023-12-20T03:23:36;14.77;;;5.88;;
52380;SDS011;38310;52.796;6.942;2023-12-20T03:26:02;18.65;;;5.75;;
52380;SDS011;38310;52.796;6.942;2023-12-20T03:28:29;18.65;;;5.60;;
52380;SDS011;38310;52.796;6.942;2023-12-20T03:30:55;21.83;;;5.50;;
52380;SDS011;38310;52.796;6.942;2023-12-20T03:33:21;12.38;;;5.07;;
52380;SDS011;38310;52.796;6.942;2023-12-20T03:35:46;14.73;;;5.20;;
52380;SDS011;38310;52.796;6.942;2023-12-20T03:38:12;17.35;;;5.70;;
52380;SDS011;38310;52.796;6.942;2023-12-20T03:40:38;19.88;;;5.43;;
52380;SDS011;38310;52.796;6.942;2023-12-20T03:43:04;17.50;;;5.05;;
52380;SDS011;38310;52.796;6.942;2023-12-20T03:45:30;15.95;;;5.90;;
52380;SDS011;38310;52.796;6.942;2023-12-20T03:47:56;13.18;;;5.28;;
52380;SDS011;38310;52.796;6.942;2023-12-20T03:50:22;14.15;;;5.15;;
52380;SDS011;38310;52.796;6.942;2023-12-20T03:52:48;17.05;;;6.50;;
52380;SDS011;38310;52.796;6.942;2023-12-20T03:55:14;24.20;;;6.15;;
52380;SDS011;38310;52.796;6.942;2023-12-20T03:57:40;17.77;;;6.22;;
52380;SDS011;38310;52.796;6.942;2023-12-20T04:00:09;24.45;;;7.97;;
52380;SDS011;38310;52.796;6.942;2023-12-20T04:02:36;20.65;;;6.80;;
52380;SDS011;38310;52.796;6.942;2023-12-20T04:05:05;20.65;;;6.63;;
52380;SDS011;38310;52.796;6.942;2023-12-20T04:07:32;18.00;;;7.03;;
52380;SDS011;38310;52.796;6.942;2023-12-20T04:09:58;20.10;;;7.18;;
52380;SDS011;38310;52.796;6.942;2023-12-20T04:12:24;27.40;;;8.32;;
52380;SDS011;38310;52.796;6.942;2023-12-20T04:14:50;17.17;;;7.07;;
52380;SDS011;38310;52.796;6.942;2023-12-20T04:17:15;26.23;;;6.65;;
52380;SDS011;38310;52.796;6.942;2023-12-20T04:19:42;25.20;;;7.43;;
52380;SDS011;38310;52.796;6.942;2023-12-20T04:22:08;24.00;;;7.55;;
52380;SDS011;38310;52.796;6.942;2023-12-20T04:24:34;36.10;;;8.40;;
52380;SDS011;38310;52.796;6.942;2023-12-20T04:26:59;25.50;;;7.85;;
52380;SDS011;38310;52.796;6.942;2023-12-20T04:29:25;25.50;;;7.25;;
52380;SDS011;38310;52.796;6.942;2023-12-20T04:31:51;26.75;;;7.95;;
52380;SDS011;38310;52.796;6.942;2023-12-20T04:34:18;21.33;;;6.95;;
52380;SDS011;38310;52.796;6.942;2023-12-20T04:36:44;24.05;;;7.88;;
52380;SDS011;38310;52.796;6.942;2023-12-20T04:39:11;28.27;;;7.85;;
52380;SDS011;38310;52.796;6.942;2023-12-20T04:41:41;30.02;;;8.98;;
52380;SDS011;38310;52.796;6.942;2023-12-20T04:44:06;26.23;;;8.23;;
52380;SDS011;38310;52.796;6.942;2023-12-20T04:46:32;29.45;;;9.25;;
52380;SDS011;38310;52.796;6.942;2023-12-20T04:48:58;21.08;;;7.22;;
52380;SDS011;38310;52.796;6.942;2023-12-20T04:51:23;20.33;;;8.10;;
52380;SDS011;38310;52.796;6.942;2023-12-20T04:53:49;20.67;;;7.85;;
52380;SDS011;38310;52.796;6.942;2023-12-20T04:56:15;24.50;;;7.88;;
52380;SDS011;38310;52.796;6.942;2023-12-20T04:58:42;28.42;;;8.15;;
52380;SDS011;38310;52.796;6.942;2023-12-20T05:01:08;25.50;;;8.45;;
52380;SDS011;38310;52.796;6.942;2023-12-20T05:03:34;19.42;;;8.25;;
52380;SDS011;38310;52.796;6.942;2023-12-20T05:06:00;25.65;;;8.50;;
52380;SDS011;38310;52.796;6.942;2023-12-20T05:08:26;28.20;;;9.13;;
52380;SDS011;38310;52.796;6.942;2023-12-20T05:10:53;25.67;;;8.05;;
52380;SDS011;38310;52.796;6.942;2023-12-20T05:13:20;28.67;;;8.65;;
52380;SDS011;38310;52.796;6.942;2023-12-20T05:15:46;20.80;;;7.78;;
52380;SDS011;38310;52.796;6.942;2023-12-20T05:18:12;20.60;;;7.80;;
52380;SDS011;38310;52.796;6.942;2023-12-20T05:20:38;23.80;;;7.32;;
52380;SDS011;38310;52.796;6.942;2023-12-20T05:23:05;23.40;;;7.63;;
52380;SDS011;38310;52.796;6.942;2023-12-20T05:25:31;21.95;;;7.80;;
52380;SDS011;38310;52.796;6.942;2023-12-20T05:27:57;24.20;;;6.97;;
52380;SDS011;38310;52.796;6.942;2023-12-20T05:30:23;23.13;;;7.53;;
52380;SDS011;38310;52.796;6.942;2023-12-20T05:32:49;23.30;;;7.80;;
52380;SDS011;38310;52.796;6.942;2023-12-20T05:35:14;22.40;;;8.30;;
52380;SDS011;38310;52.796;6.942;2023-12-20T05:37:40;27.23;;;8.60;;
52380;SDS011;38310;52.796;6.942;2023-12-20T05:40:07;24.95;;;8.52;;
52380;SDS011;38310;52.796;6.942;2023-12-20T05:42:36;20.85;;;7.80;;
52380;SDS011;38310;52.796;6.942;2023-12-20T05:45:03;26.02;;;7.75;;
52380;SDS011;38310;52.796;6.942;2023-12-20T05:47:30;23.15;;;8.23;;
52380;SDS011;38310;52.796;6.942;2023-12-20T05:49:56;28.50;;;8.15;;
52380;SDS011;38310;52.796;6.942;2023-12-20T05:52:22;22.45;;;7.88;;
52380;SDS011;38310;52.796;6.942;2023-12-20T05:54:48;25.40;;;7.18;;
52380;SDS011;38310;52.796;6.942;2023-12-20T05:57:14;22.55;;;7.80;;
52380;SDS011;38310;52.796;6.942;2023-12-20T05:59:40;24.95;;;8.63;;
52380;SDS011;38310;52.796;6.942;2023-12-20T06:02:05;25.13;;;7.68;;
52380;SDS011;38310;52.796;6.942;2023-12-20T06:04:32;31.75;;;8.10;;
52380;SDS011;38310;52.796;6.942;2023-12-20T06:06:58;22.40;;;7.70;;
52380;SDS011;38310;52.796;6.942;2023-12-20T06:09:25;29.98;;;7.35;;
52380;SDS011;38310;52.796;6.942;2023-12-20T06:11:53;24.17;;;8.43;;
52380;SDS011;38310;52.796;6.942;2023-12-20T06:14:19;29.83;;;8.70;;
52380;SDS011;38310;52.796;6.942;2023-12-20T06:16:45;24.73;;;8.15;;
52380;SDS011;38310;52.796;6.942;2023-12-20T06:19:11;28.30;;;8.18;;
52380;SDS011;38310;52.796;6.942;2023-12-20T06:21:37;28.20;;;8.10;;
52380;SDS011;38310;52.796;6.942;2023-12-20T06:24:02;20.38;;;7.43;;
52380;SDS011;38310;52.796;6.942;2023-12-20T06:26:31;25.50;;;8.02;;
52380;SDS011;38310;52.796;6.942;2023-12-20T06:28:57;21.55;;;7.18;;
52380;SDS011;38310;52.796;6.942;2023-12-20T06:31:23;25.60;;;7.68;;
52380;SDS011;38310;52.796;6.942;2023-12-20T06:33:49;25.73;;;8.15;;
52380;SDS011;38310;52.796;6.942;2023-12-20T06:36:22;23.20;;;8.03;;
52380;SDS011;38310;52.796;6.942;2023-12-20T06:38:48;24.45;;;7.93;;
52380;SDS011;38310;52.796;6.942;2023-12-20T06:41:14;28.45;;;8.50;;
52380;SDS011;38310;52.796;6.942;2023-12-20T06:43:41;20.90;;;6.93;;
52380;SDS011;38310;52.796;6.942;2023-12-20T06:46:07;24.38;;;7.70;;
52380;SDS011;38310;52.796;6.942;2023-12-20T06:48:33;22.13;;;6.72;;
52380;SDS011;38310;52.796;6.942;2023-12-20T06:51:02;21.73;;;7.05;;
52380;SDS011;38310;52.796;6.942;2023-12-20T06:53:28;20.92;;;7.20;;
52380;SDS011;38310;52.796;6.942;2023-12-20T06:55:54;25.10;;;8.18;;
52380;SDS011;38310;52.796;6.942;2023-12-20T06:58:22;28.67;;;7.68;;
52380;SDS011;38310;52.796;6.942;2023-12-20T07:00:48;24.67;;;7.22;;
52380;SDS011;38310;52.796;6.942;2023-12-20T07:03:16;23.80;;;8.02;;
52380;SDS011;38310;52.796;6.942;2023-12-20T07:05:43;23.08;;;7.25;;
52380;SDS011;38310;52.796;6.942;2023-12-20T07:08:09;28.45;;;7.30;;
52380;SDS011;38310;52.796;6.942;2023-12-20T07:10:36;24.65;;;7.28;;
52380;SDS011;38310;52.796;6.942;2023-12-20T07:13:04;23.00;;;7.72;;
52380;SDS011;38310;52.796;6.942;2023-12-20T07:15:31;21.90;;;7.18;;
52380;SDS011;38310;52.796;6.942;2023-12-20T07:17:57;18.35;;;7.50;;
52380;SDS011;38310;52.796;6.942;2023-12-20T07:20:25;20.30;;;7.25;;
52380;SDS011;38310;52.796;6.942;2023-12-20T07:22:53;20.65;;;7.40;;
52380;SDS011;38310;52.796;6.942;2023-12-20T07:25:19;20.17;;;6.78;;
52380;SDS011;38310;52.796;6.942;2023-12-20T07:27:45;24.02;;;8.00;;
52380;SDS011;38310;52.796;6.942;2023-12-20T07:30:11;24.00;;;7.82;;
52380;SDS011;38310;52.796;6.942;2023-12-20T07:32:37;34.22;;;8.68;;
52380;SDS011;38310;52.796;6.942;2023-12-20T07:35:03;21.42;;;7.80;;
52380;SDS011;38310;52.796;6.942;2023-12-20T07:37:29;29.45;;;7.28;;
52380;SDS011;38310;52.796;6.942;2023-12-20T07:39:54;30.48;;;8.02;;
52380;SDS011;38310;52.796;6.942;2023-12-20T07:42:20;15.73;;;6.88;;
52380;SDS011;38310;52.796;6.942;2023-12-20T07:44:47;25.42;;;7.75;;
52380;SDS011;38310;52.796;6.942;2023-12-20T07:47:13;22.05;;;7.63;;
52380;SDS011;38310;52.796;6.942;2023-12-20T07:49:42;21.83;;;7.22;;
52380;SDS011;38310;52.796;6.942;2023-12-20T07:52:07;20.77;;;7.50;;
52380;SDS011;38310;52.796;6.942;2023-12-20T07:54:33;25.15;;;7.15;;
52380;SDS011;38310;52.796;6.942;2023-12-20T07:57:00;22.20;;;7.00;;
52380;SDS011;38310;52.796;6.942;2023-12-20T07:59:26;23.85;;;7.05;;
52380;SDS011;38310;52.796;6.942;2023-12-20T08:01:51;22.42;;;7.75;;
52380;SDS011;38310;52.796;6.942;2023-12-20T08:04:17;27.13;;;7.03;;
52380;SDS011;38310;52.796;6.942;2023-12-20T08:06:43;25.45;;;7.93;;
52380;SDS011;38310;52.796;6.942;2023-12-20T08:09:08;23.00;;;8.40;;
52380;SDS011;38310;52.796;6.942;2023-12-20T08:11:35;30.27;;;8.13;;
52380;SDS011;38310;52.796;6.942;2023-12-20T08:14:01;30.45;;;7.78;;
52380;SDS011;38310;52.796;6.942;2023-12-20T08:16:27;24.55;;;7.47;;
52380;SDS011;38310;52.796;6.942;2023-12-20T08:18:52;26.23;;;8.60;;
52380;SDS011;38310;52.796;6.942;2023-12-20T08:21:18;27.35;;;7.97;;
52380;SDS011;38310;52.796;6.942;2023-12-20T08:23:45;19.25;;;6.78;;
52380;SDS011;38310;52.796;6.942;2023-12-20T08:26:12;27.00;;;7.60;;
52380;SDS011;38310;52.796;6.942;2023-12-20T08:28:38;21.50;;;7.45;;
52380;SDS011;38310;52.796;6.942;2023-12-20T08:31:04;18.52;;;7.65;;
52380;SDS011;38310;52.796;6.942;2023-12-20T08:33:29;23.80;;;8.05;;
52380;SDS011;38310;52.796;6.942;2023-12-20T08:35:55;25.38;;;7.70;;
52380;SDS011;38310;52.796;6.942;2023-12-20T08:38:21;25.25;;;7.47;;
52380;SDS011;38310;52.796;6.942;2023-12-20T08:40:47;27.83;;;7.53;;
52380;SDS011;38310;52.796;6.942;2023-12-20T08:43:13;23.30;;;7.28;;
52380;SDS011;38310;52.796;6.942;2023-12-20T08:45:39;25.50;;;8.20;;
52380;SDS011;38310;52.796;6.942;2023-12-20T08:48:05;29.33;;;8.10;;
52380;SDS011;38310;52.796;6.942;2023-12-20T08:50:31;28.25;;;7.70;;
52380;SDS011;38310;52.796;6.942;2023-12-20T08:52:57;26.80;;;7.57;;
52380;SDS011;38310;52.796;6.942;2023-12-20T08:55:23;24.65;;;8.02;;
52380;SDS011;38310;52.796;6.942;2023-12-20T08:57:48;20.65;;;6.45;;
52380;SDS011;38310;52.796;6.942;2023-12-20T09:00:15;24.67;;;7.20;;
52380;SDS011;38310;52.796;6.942;2023-12-20T09:02:41;22.13;;;7.55;;
52380;SDS011;38310;52.796;6.942;2023-12-20T09:05:07;23.35;;;7.43;;
52380;SDS011;38310;52.796;6.942;2023-12-20T09:07:35;25.98;;;7.57;;
52380;SDS011;38310;52.796;6.942;2023-12-20T09:10:00;23.48;;;6.63;;
52380;SDS011;38310;52.796;6.942;2023-12-20T09:12:26;23.40;;;8.07;;
52380;SDS011;38310;52.796;6.942;2023-12-20T09:14:52;22.98;;;6.60;;
52380;SDS011;38310;52.796;6.942;2023-12-20T09:17:18;19.73;;;6.82;;
52380;SDS011;38310;52.796;6.942;2023-12-20T09:19:44;23.98;;;7.85;;
52380;SDS011;38310;52.796;6.942;2023-12-20T09:22:11;26.48;;;7.68;;
52380;SDS011;38310;52.796;6.942;2023-12-20T09:24:37;27.83;;;6.90;;
52380;SDS011;38310;52.796;6.942;2023-12-20T09:27:03;22.02;;;6.82;;
52380;SDS011;38310;52.796;6.942;2023-12-20T09:29:30;22.25;;;6.43;;
52380;SDS011;38310;52.796;6.942;2023-12-20T09:31:56;25.25;;;6.65;;
52380;SDS011;38310;52.796;6.942;2023-12-20T09:34:22;19.65;;;6.43;;
52380;SDS011;38310;52.796;6.942;2023-12-20T09:36:49;19.48;;;7.63;;
52380;SDS011;38310;52.796;6.942;2023-12-20T09:39:15;28.17;;;7.43;;
52380;SDS011;38310;52.796;6.942;2023-12-20T09:41:46;18.92;;;7.43;;
52380;SDS011;38310;52.796;6.942;2023-12-20T09:44:35;23.17;;;6.90;;
52380;SDS011;38310;52.796;6.942;2023-12-20T09:47:04;20.67;;;6.65;;
52380;SDS011;38310;52.796;6.942;2023-12-20T09:49:31;23.00;;;7.35;;
52380;SDS011;38310;52.796;6.942;2023-12-20T09:51:58;21.42;;;7.10;;
52380;SDS011;38310;52.796;6.942;2023-12-20T09:54:26;28.70;;;7.53;;
52380;SDS011;38310;52.796;6.942;2023-12-20T09:56:53;18.65;;;7.07;;
52380;SDS011;38310;52.796;6.942;2023-12-20T09:59:19;22.45;;;7.00;;
52380;SDS011;38310;52.796;6.942;2023-12-20T10:01:45;23.50;;;7.20;;
52380;SDS011;38310;52.796;6.942;2023-12-20T10:04:12;22.08;;;6.32;;
52380;SDS011;38310;52.796;6.942;2023-12-20T10:06:42;15.75;;;4.82;;
52380;SDS011;38310;52.796;6.942;2023-12-20T10:09:08;14.40;;;3.83;;
52380;SDS011;38310;52.796;6.942;2023-12-20T10:11:35;14.32;;;3.90;;
52380;SDS011;38310;52.796;6.942;2023-12-20T10:14:05;6.53;;;2.35;;
52380;SDS011;38310;52.796;6.942;2023-12-20T10:16:31;9.88;;;2.90;;
52380;SDS011;38310;52.796;6.942;2023-12-20T10:18:58;9.45;;;2.97;;
52380;SDS011;38310;52.796;6.942;2023-12-20T10:21:26;8.80;;;2.80;;
52380;SDS011;38310;52.796;6.942;2023-12-20T10:23:52;7.20;;;2.50;;
52380;SDS011;38310;52.796;6.942;2023-12-20T10:26:23;9.63;;;2.80;;
52380;SDS011;38310;52.796;6.942;2023-12-20T10:28:55;8.25;;;2.33;;
52380;SDS011;38310;52.796;6.942;2023-12-20T10:31:28;5.38;;;2.20;;
52380;SDS011;38310;52.796;6.942;2023-12-20T10:34:03;10.23;;;2.90;;
52380;SDS011;38310;52.796;6.942;2023-12-20T10:36:32;9.00;;;2.42;;
52380;SDS011;38310;52.796;6.942;2023-12-20T10:38:59;8.82;;;2.28;;
52380;SDS011;38310;52.796;6.942;2023-12-20T10:43:53;9.05;;;2.90;;
52380;SDS011;38310;52.796;6.942;2023-12-20T10:46:32;6.53;;;2.28;;
52380;SDS011;38310;52.796;6.942;2023-12-20T10:49:02;7.22;;;2.47;;
52380;SDS011;38310;52.796;6.942;2023-12-20T10:51:29;7.85;;;2.70;;
52380;SDS011;38310;52.796;6.942;2023-12-20T10:53:56;8.55;;;2.38;;
52380;SDS011;38310;52.796;6.942;2023-12-20T10:56:30;6.22;;;2.05;;
52380;SDS011;38310;52.796;6.942;2023-12-20T10:58:58;6.75;;;2.60;;
52380;SDS011;38310;52.796;6.942;2023-12-20T11:01:30;7.32;;;2.45;;
52380;SDS011;38310;52.796;6.942;2023-12-20T11:03:57;7.25;;;2.10;;
52380;SDS011;38310;52.796;6.942;2023-12-20T11:06:39;6.13;;;2.38;;
52380;SDS011;38310;52.796;6.942;2023-12-20T11:11:56;7.28;;;2.10;;
52380;SDS011;38310;52.796;6.942;2023-12-20T11:17:17;6.38;;;2.88;;
52380;SDS011;38310;52.796;6.942;2023-12-20T11:20:34;9.13;;;2.40;;
52380;SDS011;38310;52.796;6.942;2023-12-20T11:22:35;8.00;;;2.78;;
52380;SDS011;38310;52.796;6.942;2023-12-20T11:25:05;9.98;;;3.00;;
52380;SDS011;38310;52.796;6.942;2023-12-20T11:27:33;8.48;;;2.88;;
52380;SDS011;38310;52.796;6.942;2023-12-20T11:29:59;8.80;;;3.22;;
52380;SDS011;38310;52.796;6.942;2023-12-20T11:32:31;9.50;;;2.72;;
52380;SDS011;38310;52.796;6.942;2023-12-20T11:35:00;10.43;;;2.88;;
52380;SDS011;38310;52.796;6.942;2023-12-20T11:37:41;9.75;;;3.08;;
52380;SDS011;38310;52.796;6.942;2023-12-20T11:40:08;7.97;;;2.95;;
52380;SDS011;38310;52.796;6.942;2023-12-20T11:42:38;8.15;;;2.90;;
52380;SDS011;38310;52.796;6.942;2023-12-20T11:45:05;13.02;;;2.85;;
52380;SDS011;38310;52.796;6.942;2023-12-20T11:47:34;10.05;;;2.83;;
52380;SDS011;38310;52.796;6.942;2023-12-20T11:50:01;11.60;;;3.35;;
52380;SDS011;38310;52.796;6.942;2023-12-20T11:52:29;10.95;;;3.28;;
52380;SDS011;38310;52.796;6.942;2023-12-20T11:54:56;10.85;;;2.80;;
52380;SDS011;38310;52.796;6.942;2023-12-20T11:57:23;8.20;;;2.80;;
52380;SDS011;38310;52.796;6.942;2023-12-20T11:59:48;19.98;;;3.78;;
52380;SDS011;38310;52.796;6.942;2023-12-20T12:02:15;10.30;;;3.10;;
52380;SDS011;38310;52.796;6.942;2023-12-20T12:04:41;12.32;;;3.33;;
52380;SDS011;38310;52.796;6.942;2023-12-20T12:07:07;10.45;;;3.00;;
52380;SDS011;38310;52.796;6.942;2023-12-20T12:09:33;10.52;;;3.42;;
52380;SDS011;38310;52.796;6.942;2023-12-20T12:11:59;7.53;;;3.08;;
52380;SDS011;38310;52.796;6.942;2023-12-20T12:14:25;9.90;;;2.58;;
52380;SDS011;38310;52.796;6.942;2023-12-20T12:16:51;24.30;;;3.92;;
52380;SDS011;38310;52.796;6.942;2023-12-20T12:19:22;10.82;;;3.55;;
52380;SDS011;38310;52.796;6.942;2023-12-20T12:21:49;13.25;;;3.33;;
52380;SDS011;38310;52.796;6.942;2023-12-20T12:24:16;10.07;;;3.53;;
52380;SDS011;38310;52.796;6.942;2023-12-20T12:26:53;11.93;;;3.05;;
52380;SDS011;38310;52.796;6.942;2023-12-20T12:29:23;12.82;;;3.83;;
52380;SDS011;38310;52.796;6.942;2023-12-20T12:31:51;12.68;;;3.22;;
52380;SDS011;38310;52.796;6.942;2023-12-20T12:34:17;11.98;;;3.10;;
52380;SDS011;38310;52.796;6.942;2023-12-20T12:36:43;15.27;;;3.80;;
52380;SDS011;38310;52.796;6.942;2023-12-20T12:39:17;16.20;;;3.78;;
52380;SDS011;38310;52.796;6.942;2023-12-20T12:41:43;9.20;;;3.30;;
52380;SDS011;38310;52.796;6.942;2023-12-20T12:44:09;10.80;;;3.63;;
52380;SDS011;38310;52.796;6.942;2023-12-20T12:46:35;9.38;;;3.15;;
52380;SDS011;38310;52.796;6.942;2023-12-20T12:49:01;13.35;;;3.83;;
52380;SDS011;38310;52.796;6.942;2023-12-20T12:51:26;9.50;;;3.47;;
52380;SDS011;38310;52.796;6.942;2023-12-20T12:53:52;10.82;;;3.28;;
52380;SDS011;38310;52.796;6.942;2023-12-20T12:56:18;13.18;;;3.22;;
52380;SDS011;38310;52.796;6.942;2023-12-20T12:58:44;12.38;;;3.72;;
52380;SDS011;38310;52.796;6.942;2023-12-20T13:01:10;11.10;;;3.53;;
52380;SDS011;38310;52.796;6.942;2023-12-20T13:03:36;11.15;;;3.25;;
52380;SDS011;38310;52.796;6.942;2023-12-20T13:06:02;9.73;;;2.90;;
52380;SDS011;38310;52.796;6.942;2023-12-20T13:08:30;11.15;;;3.60;;
52380;SDS011;38310;52.796;6.942;2023-12-20T13:10:57;12.68;;;3.90;;
52380;SDS011;38310;52.796;6.942;2023-12-20T13:13:26;8.48;;;2.97;;
52380;SDS011;38310;52.796;6.942;2023-12-20T13:15:52;11.48;;;3.28;;
52380;SDS011;38310;52.796;6.942;2023-12-20T13:18:20;9.85;;;2.83;;
52380;SDS011;38310;52.796;6.942;2023-12-20T13:20:47;10.85;;;2.88;;
52380;SDS011;38310;52.796;6.942;2023-12-20T13:23:13;8.63;;;3.08;;
52380;SDS011;38310;52.796;6.942;2023-12-20T13:25:39;12.70;;;3.30;;
52380;SDS011;38310;52.796;6.942;2023-12-20T13:28:05;9.63;;;2.50;;
52380;SDS011;38310;52.796;6.942;2023-12-20T13:30:31;10.38;;;2.85;;
52380;SDS011;38310;52.796;6.942;2023-12-20T13:32:57;9.30;;;2.80;;
52380;SDS011;38310;52.796;6.942;2023-12-20T13:35:23;8.23;;;2.92;;
52380;SDS011;38310;52.796;6.942;2023-12-20T13:37:49;8.77;;;3.05;;
52380;SDS011;38310;52.796;6.942;2023-12-20T13:40:14;11.25;;;3.33;;
52380;SDS011;38310;52.796;6.942;2023-12-20T13:42:40;9.00;;;3.35;;
52380;SDS011;38310;52.796;6.942;2023-12-20T13:45:07;13.13;;;3.08;;
52380;SDS011;38310;52.796;6.942;2023-12-20T13:47:33;10.70;;;3.40;;
52380;SDS011;38310;52.796;6.942;2023-12-20T13:50:00;9.15;;;3.22;;
52380;SDS011;38310;52.796;6.942;2023-12-20T13:52:25;9.82;;;3.20;;
52380;SDS011;38310;52.796;6.942;2023-12-20T13:54:51;10.73;;;3.53;;
52380;SDS011;38310;52.796;6.942;2023-12-20T13:57:17;9.02;;;2.85;;
52380;SDS011;38310;52.796;6.942;2023-12-20T13:59:43;12.60;;;3.45;;
52380;SDS011;38310;52.796;6.942;2023-12-20T14:02:09;12.15;;;3.85;;
52380;SDS011;38310;52.796;6.942;2023-12-20T14:04:34;14.13;;;3.47;;
52380;SDS011;38310;52.796;6.942;2023-12-20T14:07:00;10.45;;;3.05;;
52380;SDS011;38310;52.796;6.942;2023-12-20T14:09:26;12.55;;;4.20;;
52380;SDS011;38310;52.796;6.942;2023-12-20T14:11:52;6.65;;;2.80;;
52380;SDS011;38310;52.796;6.942;2023-12-20T14:14:19;11.40;;;3.50;;
52380;SDS011;38310;52.796;6.942;2023-12-20T14:16:45;9.68;;;2.80;;
52380;SDS011;38310;52.796;6.942;2023-12-20T14:19:11;10.80;;;3.50;;
52380;SDS011;38310;52.796;6.942;2023-12-20T14:21:37;12.27;;;3.25;;
52380;SDS011;38310;52.796;6.942;2023-12-20T14:24:03;8.15;;;2.97;;
52380;SDS011;38310;52.796;6.942;2023-12-20T14:26:30;8.82;;;3.38;;
52380;SDS011;38310;52.796;6.942;2023-12-20T14:28:56;9.77;;;3.00;;
52380;SDS011;38310;52.796;6.942;2023-12-20T14:31:22;14.68;;;3.70;;
52380;SDS011;38310;52.796;6.942;2023-12-20T14:33:49;8.70;;;3.40;;
52380;SDS011;38310;52.796;6.942;2023-12-20T14:36:19;10.65;;;3.63;;
52380;SDS011;38310;52.796;6.942;2023-12-20T14:38:45;10.45;;;4.13;;
52380;SDS011;38310;52.796;6.942;2023-12-20T14:41:15;11.77;;;5.55;;